Wetterdaten: Woche 29.07.02 - 04.08.02 (KW31)
Datum Zeit Temperatur Luftfeuchte Luftdruck Regenmenge Wind Richtung Taupunkt Windchill
29.07.2002 00:00 17.7 C 91 % 1018.0 hPa 0.0 l/m 2.9 km/h (1 Bft) O 16.2 C 17.7 C
29.07.2002 01:00 16.8 C 94 % 1018.0 hPa 0.0 l/m 0.7 km/h (0 Bft) O-SO 15.9 C 16.8 C
29.07.2002 02:00 16.3 C 96 % 1018.0 hPa 0.0 l/m 1.2 km/h (1 Bft) O 15.7 C 16.3 C
29.07.2002 03:00 15.7 C 97 % 1018.0 hPa 0.0 l/m 1.6 km/h (1 Bft) O-SO 15.2 C 15.7 C
29.07.2002 04:00 15.2 C 99 % 1018.0 hPa 0.0 l/m 2.4 km/h (1 Bft) O-SO 15.1 C 15.2 C
29.07.2002 05:00 14.6 C 100 % 1018.0 hPa 0.0 l/m 0.2 km/h (0 Bft) O-SO 14.5 C 14.6 C
29.07.2002 06:00 14.6 C 100 % 1018.0 hPa 0.0 l/m 0.4 km/h (0 Bft) O-SO 14.5 C 14.6 C
29.07.2002 07:00 15.4 C 97 % 1018.0 hPa 0.0 l/m 0.0 km/h (0 Bft) N 15.0 C 15.4 C
29.07.2002 08:00 17.4 C 91 % 1018.0 hPa 0.0 l/m 0.0 km/h (0 Bft) N 15.9 C 17.4 C
29.07.2002 09:00 19.8 C 79 % 1018.0 hPa 0.0 l/m 0.6 km/h (0 Bft) W 16.0 C 19.8 C
29.07.2002 10:00 22.5 C 68 % 1018.0 hPa 0.0 l/m 0.3 km/h (0 Bft) N 16.2 C 22.5 C
29.07.2002 11:00 24.8 C 61 % 1017.3 hPa 0.0 l/m 1.0 km/h (0 Bft) NW 16.8 C 24.8 C
29.07.2002 12:00 27.2 C 53 % 1017.0 hPa 0.0 l/m 5.2 km/h (1 Bft) NW 16.7 C 27.2 C
29.07.2002 13:00 28.6 C 45 % 1016.4 hPa 0.0 l/m 2.9 km/h (1 Bft) NW 15.6 C 28.6 C
29.07.2002 14:00 30.0 C 39 % 1015.9 hPa 0.0 l/m 3.8 km/h (1 Bft) NW 14.3 C 30.0 C
29.07.2002 15:00 31.1 C 36 % 1015.5 hPa 0.0 l/m 3.9 km/h (1 Bft) NW 14.2 C 31.1 C
29.07.2002 16:00 31.4 C 37 % 1014.8 hPa 0.0 l/m 2.8 km/h (1 Bft) NW 15.0 C 31.4 C
29.07.2002 17:00 30.3 C 38 % 1013.9 hPa 0.0 l/m 3.0 km/h (1 Bft) NW 14.4 C 30.3 C
29.07.2002 18:00 27.4 C 46 % 1013.9 hPa 0.0 l/m 0.1 km/h (0 Bft) N 14.6 C 27.4 C
29.07.2002 19:00 26.1 C 59 % 1013.9 hPa 0.0 l/m 0.0 km/h (0 Bft) N 17.4 C 26.1 C
29.07.2002 20:00 24.4 C 65 % 1013.9 hPa 0.0 l/m 0.2 km/h (0 Bft) O-SO 17.5 C 24.4 C
29.07.2002 21:00 21.9 C 75 % 1014.1 hPa 0.0 l/m 2.1 km/h (1 Bft) O-SO 17.3 C 21.9 C
29.07.2002 22:00 21.3 C 77 % 1014.9 hPa 0.0 l/m 2.9 km/h (1 Bft) O-SO 17.1 C 21.3 C
29.07.2002 23:00 20.1 C 82 % 1014.9 hPa 0.0 l/m 1.4 km/h (1 Bft) O-SO 17.0 C 20.1 C
30.07.2002 00:00 18.9 C 88 % 1014.1 hPa 0.0 l/m 0.8 km/h (0 Bft) O-SO 16.8 C 18.9 C
30.07.2002 01:00 18.1 C 92 % 1013.9 hPa 0.0 l/m 1.1 km/h (1 Bft) O-SO 16.8 C 18.1 C
30.07.2002 02:00 17.2 C 95 % 1013.9 hPa 0.0 l/m 2.2 km/h (1 Bft) O-SO 16.4 C 17.2 C
30.07.2002 03:00 16.5 C 96 % 1013.7 hPa 0.0 l/m 1.9 km/h (1 Bft) O 15.9 C 16.5 C
30.07.2002 04:00 16.0 C 98 % 1012.8 hPa 0.0 l/m 2.2 km/h (1 Bft) O-SO 15.6 C 16.0 C
30.07.2002 05:00 15.5 C 98 % 1013.4 hPa 0.0 l/m 0.4 km/h (0 Bft) O-SO 15.1 C 15.5 C
30.07.2002 06:00 15.5 C 98 % 1012.8 hPa 0.0 l/m 1.9 km/h (1 Bft) O-SO 15.2 C 15.5 C
30.07.2002 07:00 16.5 C 94 % 1012.8 hPa 0.0 l/m 0.3 km/h (0 Bft) O-SO 15.5 C 16.5 C
30.07.2002 08:00 18.8 C 83 % 1012.8 hPa 0.0 l/m 0.1 km/h (0 Bft) O-SO 15.9 C 18.8 C
30.07.2002 09:00 21.0 C 72 % 1012.8 hPa 0.0 l/m 0.6 km/h (0 Bft) W-NW 15.8 C 21.0 C
30.07.2002 10:00 22.9 C 67 % 1012.5 hPa 0.0 l/m 1.3 km/h (1 Bft) S-SO 16.5 C 22.9 C
30.07.2002 11:00 25.0 C 62 % 1011.8 hPa 0.0 l/m 4.0 km/h (1 Bft) O-SO 17.0 C 25.0 C
30.07.2002 12:00 27.3 C 51 % 1011.2 hPa 0.0 l/m 2.3 km/h (1 Bft) W-NW 16.1 C 27.3 C
30.07.2002 13:00 29.1 C 40 % 1010.7 hPa 0.0 l/m 4.6 km/h (1 Bft) W-NW 13.9 C 29.1 C
30.07.2002 14:00 30.8 C 34 % 1009.7 hPa 0.0 l/m 4.3 km/h (1 Bft) NW 12.8 C 30.8 C
30.07.2002 15:00 31.2 C 34 % 1009.6 hPa 0.0 l/m 0.7 km/h (0 Bft) NW 13.3 C 31.2 C
30.07.2002 16:00 31.0 C 35 % 1008.7 hPa 0.0 l/m 11.9 km/h (2 Bft) NW 13.5 C 31.0 C
30.07.2002 17:00 28.3 C 47 % 1008.7 hPa 0.0 l/m 11.1 km/h (2 Bft) W-NW 15.9 C 28.3 C
30.07.2002 18:00 27.8 C 50 % 1008.2 hPa 0.0 l/m 3.2 km/h (1 Bft) NW 16.4 C 27.8 C
30.07.2002 19:00 26.6 C 54 % 1008.7 hPa 0.0 l/m 0.3 km/h (0 Bft) N 16.4 C 26.6 C
30.07.2002 20:00 25.4 C 60 % 1008.7 hPa 0.0 l/m 1.3 km/h (1 Bft) O-SO 17.0 C 25.4 C
30.07.2002 21:00 23.7 C 65 % 1009.1 hPa 0.0 l/m 9.6 km/h (2 Bft) O-SO 16.6 C 23.7 C
30.07.2002 22:00 23.5 C 53 % 1009.7 hPa 0.0 l/m 7.9 km/h (2 Bft) SO 13.3 C 23.5 C
30.07.2002 23:00 22.5 C 58 % 1009.7 hPa 0.0 l/m 2.8 km/h (1 Bft) SO 13.8 C 22.5 C
31.07.2002 00:00 20.6 C 70 % 1010.8 hPa 0.0 l/m 12.2 km/h (3 Bft) SO 15.0 C 20.6 C
31.07.2002 01:00 18.3 C 89 % 1010.8 hPa 0.3 l/m 4.3 km/h (1 Bft) O-SO 16.5 C 18.3 C
31.07.2002 02:00 17.5 C 94 % 1010.0 hPa 0.0 l/m 2.3 km/h (1 Bft) O-SO 16.5 C 17.5 C
31.07.2002 03:00 17.2 C 94 % 1009.7 hPa 0.0 l/m 3.4 km/h (1 Bft) O-SO 16.3 C 17.2 C
31.07.2002 04:00 17.0 C 97 % 1009.7 hPa 0.0 l/m 2.4 km/h (1 Bft) O-SO 16.5 C 17.0 C
31.07.2002 05:00 17.0 C 96 % 1009.7 hPa 0.0 l/m 0.2 km/h (0 Bft) N 16.3 C 17.0 C
31.07.2002 06:00 16.9 C 94 % 1009.7 hPa 0.0 l/m 0.0 km/h (0 Bft) N 15.9 C 16.9 C
31.07.2002 07:00 17.5 C 93 % 1009.7 hPa 0.0 l/m 0.0 km/h (0 Bft) N 16.4 C 17.5 C
31.07.2002 08:00 18.5 C 90 % 1009.7 hPa 0.0 l/m 0.3 km/h (0 Bft) O-NO 16.7 C 18.5 C
31.07.2002 09:00 20.5 C 79 % 1009.7 hPa 0.0 l/m 6.6 km/h (2 Bft) O-SO 16.6 C 20.5 C
31.07.2002 10:00 22.3 C 65 % 1009.7 hPa 0.0 l/m 11.6 km/h (2 Bft) NW 15.3 C 22.3 C
31.07.2002 11:00 22.7 C 64 % 1009.7 hPa 0.0 l/m 13.9 km/h (3 Bft) NW 15.5 C 22.7 C
31.07.2002 12:00 24.5 C 59 % 1009.3 hPa 0.0 l/m 12.1 km/h (2 Bft) NW 15.9 C 24.5 C
31.07.2002 13:00 25.4 C 55 % 1008.7 hPa 0.0 l/m 13.6 km/h (3 Bft) NW 15.5 C 25.4 C
31.07.2002 14:00 26.4 C 50 % 1008.5 hPa 0.0 l/m 16.4 km/h (3 Bft) W-NW 15.3 C 26.4 C
31.07.2002 15:00 26.5 C 50 % 1007.8 hPa 0.0 l/m 22.0 km/h (4 Bft) NW 15.1 C 26.5 C
31.07.2002 16:00 23.0 C 58 % 1008.4 hPa 0.0 l/m 13.9 km/h (3 Bft) NW 14.3 C 23.0 C
31.07.2002 17:00 20.7 C 71 % 1009.2 hPa 0.0 l/m 19.3 km/h (3 Bft) W-NW 15.1 C 20.7 C
31.07.2002 18:00 18.8 C 86 % 1009.7 hPa 0.3 l/m 5.4 km/h (1 Bft) NW 16.5 C 18.8 C
31.07.2002 19:00 18.5 C 86 % 1010.1 hPa 0.0 l/m 2.0 km/h (1 Bft) SW 16.1 C 18.5 C
31.07.2002 20:00 18.3 C 85 % 1010.8 hPa 0.0 l/m 0.6 km/h (0 Bft) W 15.8 C 18.3 C
31.07.2002 21:00 18.1 C 85 % 1011.5 hPa 0.3 l/m 1.3 km/h (1 Bft) O 15.6 C 18.1 C
31.07.2002 22:00 17.7 C 92 % 1011.8 hPa 0.0 l/m 0.2 km/h (0 Bft) SO 16.3 C 17.7 C
31.07.2002 23:00 17.5 C 93 % 1011.8 hPa 0.0 l/m 0.4 km/h (0 Bft) S-SW 16.4 C 17.5 C
01.08.2002 00:00 17.0 C 91 % 1012.4 hPa 0.6 l/m 2.9 km/h (1 Bft) NW 15.4 C 17.0 C
01.08.2002 01:00 16.2 C 94 % 1012.8 hPa 0.3 l/m 1.2 km/h (1 Bft) NW 15.2 C 16.2 C
01.08.2002 02:00 16.1 C 95 % 1011.9 hPa 0.0 l/m 6.1 km/h (2 Bft) W-NW 15.2 C 16.1 C
01.08.2002 03:00 15.9 C 97 % 1011.8 hPa 0.3 l/m 1.9 km/h (1 Bft) W 15.5 C 15.9 C
01.08.2002 04:00 15.8 C 97 % 1011.8 hPa 0.0 l/m 0.2 km/h (0 Bft) N 15.2 C 15.8 C
01.08.2002 05:00 15.7 C 97 % 1011.8 hPa 0.3 l/m 0.0 km/h (0 Bft) N 15.3 C 15.7 C
01.08.2002 06:00 15.6 C 98 % 1011.8 hPa 0.0 l/m 0.5 km/h (0 Bft) W-SW 15.3 C 15.6 C
01.08.2002 07:00 16.1 C 95 % 1011.8 hPa 0.0 l/m 0.5 km/h (0 Bft) W 15.3 C 16.1 C
01.08.2002 08:00 16.4 C 91 % 1011.8 hPa 0.0 l/m 1.7 km/h (1 Bft) NW 14.9 C 16.4 C
01.08.2002 09:00 17.4 C 83 % 1011.8 hPa 0.0 l/m 7.1 km/h (2 Bft) NW 14.4 C 17.4 C
01.08.2002 10:00 18.3 C 78 % 1012.3 hPa 0.0 l/m 5.6 km/h (1 Bft) NW 14.3 C 18.3 C
01.08.2002 11:00 19.8 C 71 % 1011.8 hPa 0.0 l/m 3.7 km/h (1 Bft) W-NW 14.3 C 19.8 C
01.08.2002 12:00 21.9 C 62 % 1011.7 hPa 0.0 l/m 1.8 km/h (1 Bft) SO 14.4 C 21.9 C
01.08.2002 13:00 23.5 C 56 % 1010.8 hPa 0.0 l/m 2.7 km/h (1 Bft) W-NW 14.3 C 23.5 C
01.08.2002 14:00 22.8 C 58 % 1010.8 hPa 0.0 l/m 6.9 km/h (2 Bft) W-NW 14.0 C 22.8 C
01.08.2002 15:00 22.4 C 58 % 1010.8 hPa 0.0 l/m 6.4 km/h (2 Bft) NW 13.8 C 22.4 C
01.08.2002 16:00 20.0 C 67 % 1010.9 hPa 0.0 l/m 19.8 km/h (3 Bft) NW 13.6 C 20.0 C
01.08.2002 17:00 15.9 C 78 % 1012.4 hPa 0.0 l/m 22.0 km/h (4 Bft) W-NW 12.0 C 15.9 C
01.08.2002 18:00 16.5 C 79 % 1012.8 hPa 0.0 l/m 7.7 km/h (2 Bft) W-NW 12.8 C 16.5 C
01.08.2002 19:00 16.5 C 78 % 1013.5 hPa 0.0 l/m 8.2 km/h (2 Bft) NW 12.7 C 16.5 C
01.08.2002 20:00 16.3 C 74 % 1013.9 hPa 0.0 l/m 9.6 km/h (2 Bft) NW 11.8 C 16.3 C
01.08.2002 21:00 15.6 C 79 % 1014.5 hPa 0.0 l/m 3.5 km/h (1 Bft) W-NW 12.0 C 15.6 C
01.08.2002 22:00 15.5 C 81 % 1014.9 hPa 0.0 l/m 2.4 km/h (1 Bft) NW 12.3 C 15.5 C
01.08.2002 23:00 14.9 C 84 % 1015.7 hPa 0.0 l/m 1.0 km/h (0 Bft) W-NW 12.2 C 14.9 C
02.08.2002 00:00 14.7 C 83 % 1015.9 hPa 0.0 l/m 1.0 km/h (0 Bft) W-NW 11.8 C 14.7 C
02.08.2002 01:00 13.4 C 91 % 1015.9 hPa 0.0 l/m 0.5 km/h (0 Bft) O 12.0 C 13.4 C
02.08.2002 02:00 11.6 C 97 % 1015.9 hPa 0.0 l/m 1.3 km/h (1 Bft) O 11.0 C 11.6 C
02.08.2002 03:00 11.1 C 98 % 1015.9 hPa 0.0 l/m 0.2 km/h (0 Bft) O 10.8 C 11.1 C
02.08.2002 04:00 10.3 C 99 % 1015.9 hPa 0.0 l/m 1.3 km/h (1 Bft) O 10.2 C 10.3 C
02.08.2002 05:00 9.6 C 100 % 1015.9 hPa 0.0 l/m 0.0 km/h (0 Bft) N 9.6 C 9.6 C
02.08.2002 06:00 9.3 C 100 % 1015.9 hPa 0.0 l/m 0.0 km/h (0 Bft) N 9.3 C 9.3 C
02.08.2002 07:00 10.5 C 98 % 1015.9 hPa 0.0 l/m 0.0 km/h (0 Bft) N 10.2 C 10.5 C
02.08.2002 08:00 12.1 C 92 % 1015.9 hPa 0.0 l/m 0.1 km/h (0 Bft) N 10.7 C 12.1 C
02.08.2002 09:00 14.6 C 79 % 1015.9 hPa 0.0 l/m 1.2 km/h (1 Bft) O-SO 10.9 C 14.6 C
02.08.2002 10:00 17.2 C 70 % 1015.9 hPa 0.0 l/m 3.1 km/h (1 Bft) W-NW 11.6 C 17.2 C
02.08.2002 11:00 19.5 C 61 % 1015.9 hPa 0.0 l/m 4.2 km/h (1 Bft) NW 11.7 C 19.5 C
02.08.2002 12:00 21.6 C 51 % 1015.3 hPa 0.0 l/m 4.0 km/h (1 Bft) NW 10.8 C 21.6 C
02.08.2002 13:00 23.5 C 39 % 1015.0 hPa 0.0 l/m 4.3 km/h (1 Bft) O-SO 8.6 C 23.5 C
02.08.2002 14:00 25.1 C 36 % 1014.9 hPa 0.0 l/m 7.0 km/h (2 Bft) O-SO 9.1 C 25.1 C
02.08.2002 15:00 26.5 C 32 % 1014.4 hPa 0.0 l/m 8.6 km/h (2 Bft) O-SO 8.4 C 26.5 C
02.08.2002 16:00 27.2 C 32 % 1013.9 hPa 0.0 l/m 8.4 km/h (2 Bft) O-SO 8.9 C 27.2 C
02.08.2002 17:00 27.3 C 30 % 1013.9 hPa 0.0 l/m 2.6 km/h (1 Bft) W-NW 8.3 C 27.3 C
02.08.2002 18:00 26.4 C 34 % 1013.3 hPa 0.0 l/m 0.5 km/h (0 Bft) W 9.0 C 26.4 C
02.08.2002 19:00 23.3 C 43 % 1013.8 hPa 0.0 l/m 3.8 km/h (1 Bft) O-SO 9.8 C 23.3 C
02.08.2002 20:00 21.2 C 56 % 1013.9 hPa 0.0 l/m 7.0 km/h (2 Bft) O-SO 12.0 C 21.2 C
02.08.2002 21:00 18.2 C 66 % 1013.9 hPa 0.0 l/m 2.0 km/h (1 Bft) O-SO 11.6 C 18.2 C
02.08.2002 22:00 16.7 C 70 % 1013.9 hPa 0.0 l/m 0.9 km/h (0 Bft) O-SO 11.3 C 16.7 C
02.08.2002 23:00 16.1 C 74 % 1013.9 hPa 0.0 l/m 0.0 km/h (0 Bft) N 11.5 C 16.1 C
03.08.2002 00:00 14.8 C 83 % 1013.9 hPa 0.0 l/m 0.0 km/h (0 Bft) N 11.9 C 14.8 C
03.08.2002 01:00 14.1 C 85 % 1012.9 hPa 0.0 l/m 0.5 km/h (0 Bft) O-SO 11.6 C 14.1 C
03.08.2002 02:00 14.7 C 80 % 1012.8 hPa 0.0 l/m 0.0 km/h (0 Bft) N 11.3 C 14.7 C
03.08.2002 03:00 15.7 C 86 % 1014.2 hPa 2.1 l/m 21.2 km/h (4 Bft) NW 13.3 C 15.7 C
03.08.2002 04:00 14.9 C 97 % 1014.9 hPa 0.6 l/m 7.6 km/h (2 Bft) NW 14.4 C 14.9 C
03.08.2002 05:00 14.7 C 99 % 1015.8 hPa 0.6 l/m 4.2 km/h (1 Bft) SO 14.5 C 14.7 C
03.08.2002 06:00 14.7 C 100 % 1015.9 hPa 0.6 l/m 6.6 km/h (2 Bft) O-SO 14.7 C 14.7 C
03.08.2002 07:00 15.0 C 100 % 1015.6 hPa 0.0 l/m 2.1 km/h (1 Bft) O-SO 14.9 C 15.0 C
03.08.2002 08:00 15.4 C 99 % 1015.9 hPa 0.0 l/m 0.0 km/h (0 Bft) N 15.3 C 15.4 C
03.08.2002 09:00 15.8 C 98 % 1015.9 hPa 0.0 l/m 1.8 km/h (1 Bft) O-SO 15.5 C 15.8 C
03.08.2002 10:00 17.1 C 89 % 1015.6 hPa 0.0 l/m 2.2 km/h (1 Bft) O-SO 15.3 C 17.1 C
03.08.2002 11:00 18.6 C 80 % 1015.3 hPa 0.0 l/m 0.8 km/h (0 Bft) W-NW 15.1 C 18.6 C
03.08.2002 12:00 20.0 C 74 % 1014.8 hPa 0.0 l/m 1.2 km/h (1 Bft) NW 15.2 C 20.0 C
03.08.2002 13:00 20.7 C 71 % 1014.9 hPa 0.0 l/m 2.7 km/h (1 Bft) NW 15.2 C 20.7 C
03.08.2002 14:00 20.6 C 71 % 1014.7 hPa 0.0 l/m 2.8 km/h (1 Bft) W-NW 15.1 C 20.6 C
03.08.2002 15:00 19.9 C 77 % 1014.9 hPa 0.0 l/m 5.8 km/h (2 Bft) SO 15.8 C 19.9 C
03.08.2002 16:00 19.9 C 74 % 1014.6 hPa 0.0 l/m 7.8 km/h (2 Bft) O-SO 15.1 C 19.9 C
03.08.2002 17:00 20.0 C 72 % 1014.0 hPa 0.0 l/m 5.2 km/h (1 Bft) SO 14.8 C 20.0 C
03.08.2002 18:00 19.7 C 75 % 1013.8 hPa 0.0 l/m 3.6 km/h (1 Bft) O-SO 15.1 C 19.7 C
03.08.2002 19:00 19.1 C 82 % 1013.7 hPa 0.0 l/m 0.2 km/h (0 Bft) O-SO 16.0 C 19.1 C
03.08.2002 20:00 18.0 C 92 % 1014.0 hPa 1.2 l/m 2.8 km/h (1 Bft) O-SO 16.6 C 18.0 C
03.08.2002 21:00 17.3 C 99 % 1014.2 hPa 0.3 l/m 0.1 km/h (0 Bft) SO 17.1 C 17.3 C
03.08.2002 22:00 17.1 C 100 % 1014.6 hPa 0.3 l/m 0.0 km/h (0 Bft) N 17.1 C 17.1 C
03.08.2002 23:00 16.9 C 100 % 1014.4 hPa 0.0 l/m 0.0 km/h (0 Bft) N 16.9 C 16.9 C
04.08.2002 00:00 16.7 C 100 % 1013.9 hPa 0.0 l/m 0.0 km/h (0 Bft) N 16.7 C 16.7 C
04.08.2002 01:00 16.6 C 100 % 1014.0 hPa 0.0 l/m 1.8 km/h (1 Bft) SO 16.6 C 16.6 C
04.08.2002 02:00 16.2 C 100 % 1013.9 hPa 0.0 l/m 0.1 km/h (0 Bft) O-SO 16.2 C 16.2 C
04.08.2002 03:00 16.0 C 100 % 1013.9 hPa 0.0 l/m 0.8 km/h (0 Bft) O-SO 16.0 C 16.0 C
04.08.2002 04:00 15.7 C 100 % 1013.9 hPa 0.0 l/m 0.6 km/h (0 Bft) SO 15.7 C 15.7 C
04.08.2002 05:00 15.7 C 100 % 1013.9 hPa 0.0 l/m 0.0 km/h (0 Bft) N 15.7 C 15.7 C
04.08.2002 06:00 15.5 C 100 % 1013.9 hPa 0.0 l/m 0.4 km/h (0 Bft) W-NW 15.5 C 15.5 C
04.08.2002 07:00 15.7 C 100 % 1013.9 hPa 0.0 l/m 0.1 km/h (0 Bft) N 15.7 C 15.7 C
04.08.2002 08:00 16.3 C 97 % 1013.9 hPa 0.0 l/m 0.1 km/h (0 Bft) N 15.9 C 16.3 C
04.08.2002 09:00 17.0 C 88 % 1013.9 hPa 0.0 l/m 0.4 km/h (0 Bft) S-SO 15.0 C 17.0 C
04.08.2002 10:00 16.8 C 89 % 1013.9 hPa 0.6 l/m 1.0 km/h (0 Bft) O-SO 14.9 C 16.8 C
04.08.2002 11:00 17.9 C 85 % 1013.9 hPa 0.0 l/m 0.6 km/h (0 Bft) O-SO 15.4 C 17.9 C
04.08.2002 12:00 19.4 C 75 % 1013.8 hPa 0.0 l/m 2.7 km/h (1 Bft) O-SO 14.8 C 19.4 C
04.08.2002 13:00 19.9 C 69 % 1013.6 hPa 0.0 l/m 0.3 km/h (0 Bft) W-NW 14.0 C 19.9 C
04.08.2002 14:00 18.9 C 81 % 1013.7 hPa 0.3 l/m 1.9 km/h (1 Bft) W-NW 15.6 C 18.9 C
04.08.2002 15:00 17.8 C 92 % 1013.6 hPa 1.2 l/m 0.4 km/h (0 Bft) NW 16.6 C 17.8 C
04.08.2002 16:00 18.6 C 91 % 1013.3 hPa 0.6 l/m 0.0 km/h (0 Bft) N 17.0 C 18.6 C
04.08.2002 17:00 18.4 C 87 % 1013.0 hPa 2.7 l/m 5.3 km/h (1 Bft) O-SO 16.2 C 18.4 C
04.08.2002 18:00 16.4 C 97 % 1013.9 hPa 0.0 l/m 0.1 km/h (0 Bft) N 15.9 C 16.4 C
04.08.2002 19:00 17.3 C 89 % 1013.8 hPa 0.0 l/m 0.1 km/h (0 Bft) NW 15.5 C 17.3 C
04.08.2002 20:00 16.2 C 93 % 1013.9 hPa 0.0 l/m 0.0 km/h (0 Bft) N 15.1 C 16.2 C
04.08.2002 21:00 15.5 C 99 % 1013.9 hPa 0.0 l/m 0.0 km/h (0 Bft) N 15.4 C 15.5 C
04.08.2002 22:00 15.1 C 100 % 1014.6 hPa 0.0 l/m 0.0 km/h (0 Bft) N 15.0 C 15.1 C
04.08.2002 23:00 14.6 C 100 % 1014.9 hPa 0.0 l/m 0.0 km/h (0 Bft) N 14.6 C 14.6 C
Min-Datum _ 02.08.02 02.08.02 30.07.02 - 29.07.02 - 02.08.02 02.08.02
_ Min-Zeit 06:08 15:44 18:05 - 00:01 - 15:44 06:08
Minimum _ 9.0 C 27 % 1007.7 hPa - 0.0 km/h (0 Bft) - 5.5 C 9.0 C
Max-Datum _ 30.07.02 29.07.02 29.07.02 04.08.02 01.08.02 - 29.07.02 30.07.02
_ Max-Zeit 15:08 04:31 00:00 17:52 16:46 - 19:58 15:08
Maximum _ 32.1 C 100 % 1018.0 hPa 2.7 l/m 48.5 km/h
NW (6 Bft)
- 18.6 C 32.1 C
Durchschnitt _ 19.2 C 78 % 1013.3 hPa #13.5 l/m 3.3 km/h (1 Bft) NW 14.6 C 19.2 C

Durchschnitt Minimum Temp.18.4 C
Durchschnitt Maximum Temp.20.1 C
© Kaiko 2002